Terminal Aerodrome Forecast
Issued by NWS

Home | Current Version | Previous Version | Text Only | Print | Product List | Glossary On
Versions: 1 2 3 4 5 6 7 8 9 10 11 12 13 14 15 16 17 18 19 20 21 22 23 24 25 26 27 28 29 30 31 32 33 34 35
000
FTUS41 KBOX 222321
TAFFMH
TAF
KFMH 222321Z 2300/2324 10006KT P6SM OVC025
     FM230300 10008KT P6SM OVC020
     FM230900 09010G20KT 3SM -RA BR OVC020
     FM231100 09011G20KT 3SM -RA BR OVC015
     FM231800 09012G21KT 3SM -RA BR OVC010
     FM232000 10011G19KT 3SM BR OVC010=

USA.gov is the U.S. government's official web portal to all federal, state and local government web resources and services.